Time;durP1;ratioP1;P1;durP2;ratioP2;P2;SDS_P1;SDS_P2;PMS_P1;PMS_P2;Temp;Humidity;BMP_temperature;BMP_pressure;BME280_temperature;BME280_humidity;BME280_pressure;Samples;Min_cycle;Max_cycle;Signal;HPM_P1;HPM_P2
2021/01/28 00:00:11;;;;;;;6.90;6.20;;;2.90;99.90;;;;;;5066100;28;20403;-81
2021/01/28 00:02:37;;;;;;;7.93;5.40;;;2.80;99.90;;;;;;5069703;28;20405;-81
2021/01/28 00:05:03;;;;;;;10.50;7.70;;;2.80;99.90;;;;;;5069245;28;20620;-81
2021/01/28 00:07:32;;;;;;;6.77;6.13;;;2.90;99.90;;;;;;5068530;28;20161;-81
2021/01/28 00:09:58;;;;;;;7.50;5.57;;;2.60;99.90;;;;;;5068868;28;20395;-79
2021/01/28 00:12:24;;;;;;;6.53;5.87;;;2.90;99.90;;;;;;5069325;28;20381;-81
2021/01/28 00:14:50;;;;;;;10.57;7.03;;;2.80;99.90;;;;;;5068285;28;20160;-80
2021/01/28 00:17:15;;;;;;;6.27;5.73;;;2.80;99.90;;;;;;5068900;28;20171;-80
2021/01/28 00:19:41;;;;;;;8.60;7.20;;;2.80;99.90;;;;;;5068144;28;20238;-81
2021/01/28 00:22:07;;;;;;;10.07;7.63;;;3.00;99.90;;;;;;5065381;28;20160;-80
2021/01/28 00:24:33;;;;;;;10.47;7.53;;;2.90;99.90;;;;;;5061689;28;20160;-80
2021/01/28 00:26:59;;;;;;;12.60;8.00;;;2.60;99.90;;;;;;5061508;28;20265;-80
2021/01/28 00:29:25;;;;;;;7.67;6.60;;;2.60;99.90;;;;;;5058850;28;20411;-79
2021/01/28 00:31:52;;;;;;;6.67;5.73;;;2.50;99.90;;;;;;5061028;28;20395;-81
2021/01/28 00:34:21;;;;;;;7.77;5.90;;;2.60;99.90;;;;;;5061396;28;20589;-80
2021/01/28 00:36:47;;;;;;;6.03;5.43;;;2.80;99.90;;;;;;5060840;28;20510;-81
2021/01/28 00:39:12;;;;;;;7.73;6.50;;;2.70;99.90;;;;;;5061177;28;20434;-79
2021/01/28 00:41:38;;;;;;;5.23;4.73;;;2.80;99.90;;;;;;5060962;28;20161;-79
2021/01/28 00:44:04;;;;;;;5.33;4.70;;;2.80;99.90;;;;;;5060681;28;20164;-81
2021/01/28 00:46:30;;;;;;;5.80;5.20;;;2.90;99.90;;;;;;5062158;28;20184;-81
2021/01/28 00:48:57;;;;;;;6.63;5.50;;;3.10;99.90;;;;;;5061930;28;20513;-81
2021/01/28 00:51:23;;;;;;;23.40;6.73;;;2.90;99.90;;;;;;5041575;28;20485;-79
2021/01/28 00:53:49;;;;;;;6.27;5.57;;;2.90;99.90;;;;;;5040038;28;20367;-79
2021/01/28 00:56:15;;;;;;;6.70;5.23;;;2.90;99.90;;;;;;5040462;28;20165;-81
2021/01/28 00:58:42;;;;;;;5.50;4.80;;;2.90;99.90;;;;;;5043081;28;20163;-80
2021/01/28 01:01:07;;;;;;;9.40;5.60;;;2.80;99.90;;;;;;5058422;28;20172;-80
2021/01/28 01:03:33;;;;;;;7.00;5.43;;;2.90;99.90;;;;;;5063950;28;20399;-81
2021/01/28 01:05:59;;;;;;;10.17;6.00;;;3.10;99.90;;;;;;5063307;28;20184;-79
2021/01/28 01:08:28;;;;;;;6.67;6.17;;;3.20;99.90;;;;;;5063834;28;20179;-78
2021/01/28 01:10:57;;;;;;;5.77;5.00;;;3.30;99.90;;;;;;5063096;28;20407;-79
2021/01/28 01:13:27;;;;;;;6.60;4.80;;;3.00;99.90;;;;;;5067152;28;20422;-80
2021/01/28 01:15:53;;;;;;;5.23;4.73;;;3.00;99.90;;;;;;5067752;28;20390;-80
2021/01/28 01:18:26;;;;;;;4.97;4.47;;;3.20;99.90;;;;;;5064894;28;20521;-80
2021/01/28 01:20:52;;;;;;;6.43;5.67;;;3.00;99.90;;;;;;5055567;28;20514;-80
2021/01/28 01:23:18;;;;;;;7.67;6.20;;;3.00;99.90;;;;;;5047625;28;20399;-80
2021/01/28 01:25:46;;;;;;;7.97;6.23;;;2.90;99.90;;;;;;5046496;28;20541;-80
2021/01/28 01:28:13;;;;;;;7.90;6.40;;;2.90;99.90;;;;;;5046220;28;20424;-80
2021/01/28 01:30:39;;;;;;;9.97;6.97;;;2.70;99.90;;;;;;5046856;28;20918;-80
2021/01/28 01:33:05;;;;;;;8.20;6.87;;;2.80;99.90;;;;;;5048388;28;20399;-79
2021/01/28 01:35:32;;;;;;;8.30;5.63;;;2.70;99.90;;;;;;5048045;28;20389;-80
2021/01/28 01:37:58;;;;;;;11.17;6.57;;;2.70;99.90;;;;;;5047984;28;20411;-79
2021/01/28 01:40:35;;;;;;;9.40;7.10;;;2.70;99.90;;;;;;5051857;28;20394;-80
2021/01/28 01:43:03;;;;;;;6.67;5.87;;;2.90;99.90;;;;;;5047016;28;20407;-81
2021/01/28 01:45:34;;;;;;;10.07;7.40;;;3.00;99.90;;;;;;5045754;28;20443;-79
2021/01/28 01:48:10;;;;;;;13.13;7.20;;;3.00;99.90;;;;;;5046491;28;20542;-80
2021/01/28 01:50:42;;;;;;;9.00;6.40;;;2.90;99.90;;;;;;5046878;28;20446;-80
2021/01/28 01:53:16;;;;;;;6.30;5.57;;;2.90;99.90;;;;;;5047686;28;20530;-80
2021/01/28 01:55:49;;;;;;;9.47;6.07;;;2.80;99.90;;;;;;5056525;28;20392;-78
2021/01/28 01:58:25;;;;;;;11.60;7.77;;;2.90;99.90;;;;;;5055908;28;20400;-81
2021/01/28 02:00:51;;;;;;;7.93;6.50;;;2.80;99.90;;;;;;5049064;28;20403;-81
2021/01/28 02:03:17;;;;;;;7.83;7.00;;;2.80;99.90;;;;;;5049287;28;20469;-81
2021/01/28 02:05:52;;;;;;;8.00;6.50;;;2.80;99.90;;;;;;5048637;28;20275;-82
2021/01/28 02:08:18;;;;;;;8.07;7.27;;;2.80;99.90;;;;;;5046949;28;20742;-80
2021/01/28 02:10:43;;;;;;;7.50;6.80;;;2.80;99.90;;;;;;5047971;28;20770;-81
2021/01/28 02:13:09;;;;;;;6.20;5.53;;;2.80;99.90;;;;;;5049069;28;20416;-81
2021/01/28 02:15:35;;;;;;;8.90;7.17;;;2.90;99.90;;;;;;5049244;28;20165;-81
2021/01/28 02:18:01;;;;;;;8.83;5.63;;;2.60;99.90;;;;;;5047999;28;20161;-81
2021/01/28 02:20:49;;;;;;;6.90;6.00;;;2.70;99.90;;;;;;5055313;28;20239;-80
2021/01/28 02:23:28;;;;;;;7.53;6.20;;;2.80;99.90;;;;;;5073703;28;20411;-78
2021/01/28 02:25:54;;;;;;;6.50;5.77;;;2.80;99.90;;;;;;5077421;28;20465;-78
2021/01/28 02:28:23;;;;;;;5.40;4.80;;;2.90;99.90;;;;;;5077173;28;20445;-78
2021/01/28 02:30:55;;;;;;;7.40;5.73;;;2.90;99.90;;;;;;5063220;28;20412;-79
2021/01/28 02:33:44;;;;;;;16.53;7.00;;;2.80;99.90;;;;;;5046880;28;20396;-81
2021/01/28 02:36:12;;;;;;;8.50;7.00;;;2.90;99.90;;;;;;5047026;28;20426;-80
2021/01/28 02:38:38;;;;;;;8.50;6.20;;;2.90;99.90;;;;;;5046996;28;20407;-78
2021/01/28 02:41:07;;;;;;;7.60;6.33;;;3.00;99.90;;;;;;5057541;28;20414;-80
2021/01/28 02:43:35;;;;;;;7.00;6.37;;;3.10;99.90;;;;;;5059053;28;20415;-79
2021/01/28 02:46:10;;;;;;;9.80;6.97;;;3.20;99.90;;;;;;5047475;28;20435;-80
2021/01/28 02:48:36;;;;;;;5.93;5.30;;;3.20;99.90;;;;;;5047620;28;20842;-79
2021/01/28 02:51:04;;;;;;;8.17;6.47;;;3.40;99.90;;;;;;5046478;28;20426;-79
2021/01/28 02:53:42;;;;;;;9.03;5.60;;;3.30;99.90;;;;;;5047312;28;20403;-80
2021/01/28 02:56:09;;;;;;;7.73;6.60;;;3.10;99.90;;;;;;5046877;28;20392;-81
2021/01/28 02:58:34;;;;;;;5.53;5.03;;;3.00;99.90;;;;;;5046213;28;20412;-81
2021/01/28 03:01:01;;;;;;;9.93;5.90;;;3.00;99.90;;;;;;5046867;28;20415;-81
2021/01/28 03:03:27;;;;;;;9.23;7.20;;;2.80;99.90;;;;;;5046419;28;20202;-79
2021/01/28 03:05:53;;;;;;;9.77;7.73;;;2.80;99.90;;;;;;5046340;28;20533;-81
2021/01/28 03:08:20;;;;;;;9.90;7.40;;;2.80;99.90;;;;;;5045931;28;20973;-81
2021/01/28 03:10:46;;;;;;;8.10;5.60;;;2.80;99.90;;;;;;5053942;28;20385;-82
2021/01/28 03:13:12;;;;;;;10.23;7.13;;;2.80;99.90;;;;;;5066793;28;20401;-82
2021/01/28 03:15:38;;;;;;;10.27;6.60;;;3.00;99.90;;;;;;5066144;28;20410;-80
2021/01/28 03:18:05;;;;;;;8.23;6.60;;;2.80;99.90;;;;;;5066227;28;20434;-81
2021/01/28 03:20:31;;;;;;;8.87;7.23;;;2.80;99.90;;;;;;5061925;28;20191;-82
2021/01/28 03:22:57;;;;;;;11.50;7.17;;;2.80;99.90;;;;;;5045398;28;20399;-81
2021/01/28 03:25:24;;;;;;;13.87;8.70;;;2.70;99.90;;;;;;5045433;28;20479;-81
2021/01/28 03:27:51;;;;;;;12.40;8.17;;;2.80;99.90;;;;;;5046722;28;20430;-81
2021/01/28 03:30:23;;;;;;;7.87;7.07;;;2.80;99.90;;;;;;5050469;28;20428;-82
2021/01/28 03:32:49;;;;;;;11.57;7.57;;;2.70;99.90;;;;;;5067407;28;20394;-81
2021/01/28 03:35:16;;;;;;;17.00;6.23;;;2.70;99.90;;;;;;5067576;28;20454;-81
2021/01/28 03:37:42;;;;;;;7.67;6.40;;;2.70;99.90;;;;;;5067853;28;20395;-81
2021/01/28 03:40:08;;;;;;;9.37;5.47;;;2.90;99.90;;;;;;5067032;28;20398;-81
2021/01/28 03:42:34;;;;;;;8.00;5.73;;;2.90;99.90;;;;;;5065585;28;20398;-82
2021/01/28 03:45:00;;;;;;;10.53;6.60;;;2.70;99.90;;;;;;5069682;28;20386;-80
2021/01/28 03:47:26;;;;;;;15.13;8.10;;;2.70;99.90;;;;;;5072077;28;20198;-82
2021/01/28 03:49:52;;;;;;;15.97;8.07;;;2.60;99.90;;;;;;5068597;28;20238;-80
2021/01/28 03:52:18;;;;;;;9.43;7.57;;;2.70;99.90;;;;;;5069558;28;20172;-81
2021/01/28 03:54:45;;;;;;;10.07;8.13;;;2.80;99.90;;;;;;5067588;28;20413;-81
2021/01/28 03:57:11;;;;;;;12.50;8.37;;;2.80;99.90;;;;;;5067367;28;20410;-82
2021/01/28 03:59:36;;;;;;;11.27;6.80;;;2.80;99.90;;;;;;5067652;28;20497;-81
2021/01/28 04:02:02;;;;;;;14.60;8.30;;;2.80;99.90;;;;;;5051016;28;20416;-81
2021/01/28 04:04:29;;;;;;;10.70;8.17;;;2.70;99.90;;;;;;5052911;28;20157;-80
2021/01/28 04:06:55;;;;;;;13.37;8.00;;;2.70;99.90;;;;;;5055485;28;20427;-79
2021/01/28 04:09:21;;;;;;;14.93;9.67;;;2.80;99.90;;;;;;5056322;28;20389;-79
2021/01/28 04:11:47;;;;;;;14.40;6.87;;;3.00;99.90;;;;;;5056081;28;20157;-78
2021/01/28 04:14:13;;;;;;;8.87;7.63;;;3.00;99.90;;;;;;5054925;28;20411;-80
2021/01/28 04:16:39;;;;;;;12.30;7.27;;;3.10;99.90;;;;;;5054958;28;20165;-79
2021/01/28 04:19:05;;;;;;;9.77;7.60;;;3.30;99.90;;;;;;5055312;28;20238;-78
2021/01/28 04:21:31;;;;;;;12.50;7.23;;;3.20;99.90;;;;;;5054910;28;20207;-79
2021/01/28 04:23:57;;;;;;;15.30;11.13;;;3.30;99.90;;;;;;5054208;28;20414;-79
2021/01/28 04:26:25;;;;;;;11.97;8.33;;;3.10;99.90;;;;;;5055213;28;20196;-79
2021/01/28 04:28:52;;;;;;;13.33;9.43;;;3.10;99.90;;;;;;5054219;28;20419;-80
2021/01/28 04:31:18;;;;;;;14.27;9.03;;;3.20;99.90;;;;;;5052688;28;20391;-81
2021/01/28 04:33:45;;;;;;;13.60;9.13;;;3.20;99.90;;;;;;5051468;28;20400;-82
2021/01/28 04:36:11;;;;;;;10.10;7.47;;;3.30;99.90;;;;;;5046366;28;20407;-82
2021/01/28 04:38:37;;;;;;;17.83;8.53;;;3.20;99.90;;;;;;5046774;28;20410;-82
2021/01/28 04:41:17;;;;;;;12.87;7.57;;;3.40;99.90;;;;;;5047098;28;20415;-82
2021/01/28 04:43:46;;;;;;;11.90;8.07;;;3.40;99.90;;;;;;5046281;28;20395;-82
2021/01/28 04:46:22;;;;;;;14.57;8.90;;;3.20;99.90;;;;;;5045966;28;20425;-81
2021/01/28 04:48:48;;;;;;;12.50;8.30;;;3.10;99.90;;;;;;5050388;28;20431;-81
2021/01/28 04:51:15;;;;;;;14.13;8.10;;;3.20;99.90;;;;;;5058294;28;20433;-81
2021/01/28 04:53:52;;;;;;;10.03;8.10;;;3.20;99.90;;;;;;5070597;28;20403;-82
2021/01/28 04:56:22;;;;;;;11.83;7.77;;;3.20;99.90;;;;;;5070251;28;20440;-81
2021/01/28 04:58:51;;;;;;;16.77;10.60;;;3.40;99.90;;;;;;5070437;28;20498;-81
2021/01/28 05:01:17;;;;;;;12.37;8.93;;;3.40;99.90;;;;;;5061240;28;20415;-81
2021/01/28 05:03:47;;;;;;;20.03;8.87;;;3.20;99.90;;;;;;5050720;28;20415;-79
2021/01/28 05:06:14;;;;;;;17.27;9.70;;;3.10;99.90;;;;;;5058345;28;20506;-79
2021/01/28 05:08:40;;;;;;;10.37;7.57;;;3.10;99.90;;;;;;5056538;28;20420;-80
2021/01/28 05:11:22;;;;;;;16.13;8.60;;;2.90;99.90;;;;;;5061610;28;20874;-80
2021/01/28 05:13:48;;;;;;;21.63;8.13;;;2.90;99.90;;;;;;5074239;28;20372;-80
2021/01/28 05:16:49;;;;;;;14.90;8.27;;;3.00;99.90;;;;;;5075307;28;20426;-81
2021/01/28 05:19:35;;;;;;;17.27;9.63;;;3.00;99.90;;;;;;5074793;28;20234;-81
2021/01/28 05:22:06;;;;;;;12.80;9.57;;;3.10;99.90;;;;;;5064032;28;20455;-79
2021/01/28 05:24:38;;;;;;;14.70;8.97;;;3.00;99.90;;;;;;5051403;28;20423;-81
2021/01/28 05:27:18;;;;;;;15.00;9.37;;;3.00;99.90;;;;;;5049491;28;20459;-81
2021/01/28 05:29:46;;;;;;;16.17;8.83;;;3.20;99.90;;;;;;5047350;28;20435;-81
2021/01/28 05:32:31;;;;;;;12.60;8.00;;;3.20;99.90;;;;;;5049276;28;20416;-81
2021/01/28 05:35:21;;;;;;;13.53;8.33;;;2.90;99.90;;;;;;5049172;28;20446;-80
2021/01/28 05:37:49;;;;;;;22.33;9.93;;;2.80;99.90;;;;;;5049892;28;20445;-81
2021/01/28 05:40:23;;;;;;;18.53;10.37;;;2.80;99.90;;;;;;5049779;28;20427;-81
2021/01/28 05:42:52;;;;;;;14.93;10.47;;;2.70;99.90;;;;;;5052113;28;20468;-81
2021/01/28 05:45:34;;;;;;;17.23;10.10;;;2.60;99.90;;;;;;5050284;28;20423;-81
2021/01/28 05:48:29;;;;;;;14.07;9.30;;;2.50;99.90;;;;;;5051374;28;20450;-81
2021/01/28 05:51:06;;;;;;;23.43;10.43;;;2.50;99.90;;;;;;5058244;28;20446;-80
2021/01/28 05:53:32;;;;;;;20.80;10.07;;;2.50;99.90;;;;;;5058977;28;20478;-79
2021/01/28 05:55:59;;;;;;;15.73;11.53;;;2.50;99.90;;;;;;5052307;28;20438;-81
2021/01/28 05:58:42;;;;;;;17.67;10.30;;;2.50;99.90;;;;;;5045899;28;20165;-80
2021/01/28 06:01:34;;;;;;;23.60;9.40;;;2.60;99.90;;;;;;5050397;28;20419;-81
2021/01/28 06:04:25;;;;;;;15.87;9.90;;;2.60;99.90;;;;;;5049486;28;20415;-82
2021/01/28 06:07:25;;;;;;;17.23;10.70;;;2.60;99.90;;;;;;5028158;28;20471;-81
2021/01/28 06:10:07;;;;;;;28.40;12.90;;;2.60;99.90;;;;;;5033630;28;20423;-81
2021/01/28 06:12:53;;;;;;;19.53;10.33;;;2.70;99.90;;;;;;5062232;28;20425;-80
2021/01/28 06:15:40;;;;;;;18.53;9.00;;;2.70;99.90;;;;;;5056792;28;20450;-81
2021/01/28 06:18:35;;;;;;;20.20;10.63;;;2.70;99.90;;;;;;5047573;28;20470;-81
2021/01/28 06:21:19;;;;;;;17.50;8.73;;;3.00;99.90;;;;;;5048407;28;20466;-81
2021/01/28 06:24:13;;;;;;;36.40;12.67;;;2.90;99.90;;;;;;5068359;28;20564;-81
2021/01/28 06:26:58;;;;;;;22.87;9.70;;;2.80;99.90;;;;;;5067403;28;20595;-80
2021/01/28 06:29:49;;;;;;;27.10;11.47;;;2.80;99.90;;;;;;5057818;28;20475;-81
2021/01/28 06:32:43;;;;;;;19.90;10.70;;;3.00;99.90;;;;;;5047175;28;20411;-81
2021/01/28 06:35:36;;;;;;;19.03;9.53;;;2.90;99.90;;;;;;5046640;28;20432;-81
2021/01/28 06:38:21;;;;;;;23.10;9.67;;;2.80;99.90;;;;;;5047094;28;20415;-82
2021/01/28 06:40:50;;;;;;;19.47;8.97;;;2.70;99.90;;;;;;5046883;28;20450;-81
2021/01/28 06:43:27;;;;;;;25.13;10.97;;;2.70;99.90;;;;;;5055771;28;20427;-81
2021/01/28 06:45:59;;;;;;;16.47;8.57;;;2.60;99.90;;;;;;5046771;28;20553;-81
2021/01/28 06:48:37;;;;;;;21.03;9.60;;;2.60;99.90;;;;;;5047241;28;20394;-81
2021/01/28 06:51:15;;;;;;;19.90;11.00;;;2.60;99.90;;;;;;5032915;28;20446;-81
2021/01/28 06:53:46;;;;;;;18.33;11.40;;;2.50;99.90;;;;;;5036174;28;20480;-81
2021/01/28 06:56:29;;;;;;;14.10;9.17;;;2.50;99.90;;;;;;5045526;28;20415;-81
2021/01/28 06:59:06;;;;;;;19.10;11.13;;;2.40;99.90;;;;;;5047133;28;20431;-80
2021/01/28 07:01:51;;;;;;;21.33;11.27;;;2.60;99.90;;;;;;5044408;28;20477;-81
2021/01/28 07:04:25;;;;;;;21.67;11.80;;;2.60;99.90;;;;;;5046414;28;20522;-80
2021/01/28 07:07:02;;;;;;;25.40;11.33;;;2.60;99.90;;;;;;5046274;28;20474;-80
2021/01/28 07:09:41;;;;;;;18.07;9.63;;;2.60;99.90;;;;;;5046175;28;20732;-81
2021/01/28 07:12:12;;;;;;;23.63;11.33;;;2.60;99.90;;;;;;5046231;28;20422;-81
2021/01/28 07:14:38;;;;;;;18.30;9.97;;;2.40;99.90;;;;;;5054511;28;20441;-81
2021/01/28 07:17:19;;;;;;;20.13;9.60;;;2.60;99.90;;;;;;5067038;28;20820;-80
2021/01/28 07:19:58;;;;;;;23.03;12.60;;;2.50;99.90;;;;;;5054239;28;20493;-79
2021/01/28 07:22:34;;;;;;;20.90;9.43;;;2.60;99.90;;;;;;5022533;28;20471;-80
2021/01/28 07:25:31;;;;;;;19.63;11.37;;;2.60;99.90;;;;;;5045417;28;20454;-79
2021/01/28 07:28:23;;;;;;;17.83;10.77;;;2.60;99.90;;;;;;5050502;28;20435;-79
2021/01/28 07:31:02;;;;;;;28.07;13.07;;;2.60;99.90;;;;;;5045612;28;20454;-79
2021/01/28 07:33:41;;;;;;;22.23;12.00;;;2.80;99.90;;;;;;5044490;28;20415;-81
2021/01/28 07:36:39;;;;;;;19.07;11.27;;;2.60;99.90;;;;;;5058130;28;20425;-80
2021/01/28 07:39:25;;;;;;;17.80;9.60;;;2.70;99.90;;;;;;5046068;28;20423;-81
2021/01/28 07:41:54;;;;;;;18.77;10.80;;;2.60;99.90;;;;;;5043871;28;20427;-80
2021/01/28 07:44:37;;;;;;;16.50;9.70;;;2.60;99.90;;;;;;5044976;28;20493;-81
2021/01/28 07:47:12;;;;;;;15.13;8.60;;;2.60;99.90;;;;;;5045286;28;20776;-81
2021/01/28 07:49:38;;;;;;;15.90;9.00;;;2.60;99.90;;;;;;5046432;28;20438;-82
2021/01/28 07:52:30;;;;;;;14.90;8.57;;;2.50;99.90;;;;;;5041053;28;20442;-81
2021/01/28 07:54:57;;;;;;;19.20;10.67;;;2.60;99.90;;;;;;5041247;28;20424;-81
2021/01/28 07:57:42;;;;;;;15.47;9.87;;;2.60;99.90;;;;;;5046436;28;20438;-80
2021/01/28 08:00:14;;;;;;;20.57;10.37;;;2.60;99.90;;;;;;5035410;28;20435;-80
2021/01/28 08:02:40;;;;;;;11.43;7.30;;;2.60;99.90;;;;;;5036299;28;20423;-81
2021/01/28 08:05:11;;;;;;;17.07;12.57;;;2.60;99.90;;;;;;5043638;28;20423;-81
2021/01/28 08:07:45;;;;;;;14.50;8.97;;;2.60;99.90;;;;;;5045788;28;20415;-81
2021/01/28 08:10:27;;;;;;;20.07;10.67;;;2.70;99.90;;;;;;5041541;28;20430;-82
2021/01/28 08:13:00;;;;;;;19.50;12.20;;;2.70;99.90;;;;;;5042651;28;20423;-81
2021/01/28 08:15:33;;;;;;;14.33;9.53;;;2.60;99.90;;;;;;5044645;28;20443;-80
2021/01/28 08:18:15;;;;;;;16.73;9.13;;;2.70;99.90;;;;;;5054538;28;20420;-80
2021/01/28 08:20:40;;;;;;;21.57;9.10;;;2.60;99.90;;;;;;5043956;28;20539;-80
2021/01/28 08:23:16;;;;;;;19.90;10.50;;;2.80;99.90;;;;;;5043195;28;20420;-79
2021/01/28 08:25:57;;;;;;;16.87;9.70;;;2.80;99.90;;;;;;5032737;28;20185;-79
2021/01/28 08:28:25;;;;;;;12.97;9.23;;;2.60;99.90;;;;;;5046327;28;20428;-78
2021/01/28 08:31:00;;;;;;;16.27;9.97;;;2.60;99.90;;;;;;5051434;28;20426;-80
2021/01/28 08:33:27;;;;;;;12.90;8.43;;;2.70;99.90;;;;;;5040814;28;21560;-80
2021/01/28 08:35:56;;;;;;;19.77;10.43;;;2.80;99.90;;;;;;5041984;28;20478;-80
2021/01/28 08:38:28;;;;;;;19.17;11.70;;;2.80;99.90;;;;;;5042012;28;20432;-81
2021/01/28 08:41:12;;;;;;;15.67;10.20;;;2.70;99.90;;;;;;5036218;28;20439;-80
2021/01/28 08:43:39;;;;;;;21.20;9.43;;;2.70;99.90;;;;;;5043450;28;20833;-80
2021/01/28 08:46:13;;;;;;;16.50;9.40;;;2.90;99.90;;;;;;5045145;28;20467;-80
2021/01/28 08:48:41;;;;;;;22.97;10.57;;;2.80;99.90;;;;;;5041721;28;20442;-80
2021/01/28 08:51:14;;;;;;;28.70;10.87;;;2.80;99.90;;;;;;5041032;28;20431;-80
2021/01/28 08:53:45;;;;;;;12.87;8.57;;;2.90;99.90;;;;;;5043394;28;20435;-82
2021/01/28 08:56:28;;;;;;;20.53;9.57;;;2.90;99.90;;;;;;5042529;28;20423;-81
2021/01/28 08:58:54;;;;;;;17.37;9.90;;;2.90;99.90;;;;;;5028741;28;20405;-81
2021/01/28 09:01:23;;;;;;;11.90;7.53;;;2.90;99.90;;;;;;5054737;28;20465;-81
2021/01/28 09:04:11;;;;;;;22.47;9.50;;;2.90;99.90;;;;;;5041099;28;20467;-82
2021/01/28 09:06:40;;;;;;;11.93;7.73;;;2.90;99.90;;;;;;5039951;28;20494;-82
2021/01/28 09:09:24;;;;;;;10.43;8.13;;;3.00;99.90;;;;;;5042691;28;20420;-82
2021/01/28 09:11:52;;;;;;;6.67;5.60;;;2.90;99.90;;;;;;5039091;28;20427;-81
2021/01/28 09:14:28;;;;;;;18.00;9.43;;;2.80;99.90;;;;;;5042558;28;20454;-80
2021/01/28 09:16:59;;;;;;;13.90;8.50;;;2.80;99.90;;;;;;5041539;28;20521;-82
2021/01/28 09:19:26;;;;;;;24.97;11.73;;;2.90;99.90;;;;;;5037242;28;20498;-81
2021/01/28 09:21:59;;;;;;;18.33;9.60;;;3.00;99.90;;;;;;5038718;28;20431;-79
2021/01/28 09:24:49;;;;;;;13.13;8.83;;;3.10;99.90;;;;;;5040370;28;20903;-82
2021/01/28 09:27:25;;;;;;;15.07;10.20;;;3.00;99.90;;;;;;5041272;28;20751;-81
2021/01/28 09:29:53;;;;;;;16.23;9.27;;;3.10;99.90;;;;;;5041969;28;20439;-80
2021/01/28 09:32:33;;;;;;;16.50;9.93;;;2.90;99.90;;;;;;5038214;28;20431;-80
2021/01/28 09:35:19;;;;;;;15.30;10.40;;;3.00;99.90;;;;;;5041649;28;20495;-80
2021/01/28 09:37:59;;;;;;;14.80;8.93;;;3.10;99.90;;;;;;5041176;28;20431;-80
2021/01/28 09:40:34;;;;;;;14.50;7.63;;;3.00;99.90;;;;;;5042515;28;20434;-81
2021/01/28 09:43:23;;;;;;;15.70;9.80;;;2.90;99.90;;;;;;5046945;28;20473;-81
2021/01/28 09:46:10;;;;;;;15.83;8.53;;;2.90;99.90;;;;;;5040679;28;20455;-81
2021/01/28 09:48:39;;;;;;;18.03;9.73;;;3.00;99.90;;;;;;5041024;28;20464;-81
2021/01/28 09:51:06;;;;;;;11.83;6.70;;;2.90;99.90;;;;;;5043249;28;20803;-81
2021/01/28 09:53:33;;;;;;;21.40;8.93;;;2.90;99.90;;;;;;5044368;28;20420;-79
2021/01/28 09:55:59;;;;;;;11.80;9.97;;;3.10;99.90;;;;;;5042247;28;20440;-80
2021/01/28 09:58:25;;;;;;;16.90;9.17;;;3.20;99.90;;;;;;5040028;28;20530;-79
2021/01/28 10:00:56;;;;;;;15.40;10.60;;;3.10;99.90;;;;;;5035584;28;20424;-81
2021/01/28 10:03:23;;;;;;;16.00;9.47;;;3.10;99.90;;;;;;5017785;28;20443;-81
2021/01/28 10:05:49;;;;;;;19.53;10.13;;;3.00;99.90;;;;;;5054205;28;20492;-82
2021/01/28 10:08:17;;;;;;;18.67;8.73;;;3.00;99.90;;;;;;5041268;28;20522;-80
2021/01/28 10:10:43;;;;;;;11.20;8.33;;;3.10;99.90;;;;;;5042452;28;20185;-79
2021/01/28 10:13:14;;;;;;;10.80;7.90;;;3.00;99.90;;;;;;5055761;28;20434;-80
2021/01/28 10:15:40;;;;;;;15.60;10.17;;;3.20;99.90;;;;;;5045074;28;20441;-81
2021/01/28 10:18:06;;;;;;;15.53;8.40;;;3.10;99.90;;;;;;5042680;28;20467;-81
2021/01/28 10:20:32;;;;;;;12.23;8.57;;;3.10;99.90;;;;;;5042799;28;20498;-80
2021/01/28 10:23:02;;;;;;;16.77;9.77;;;3.00;99.90;;;;;;5050630;28;20189;-81
2021/01/28 10:25:28;;;;;;;24.07;10.90;;;3.10;99.90;;;;;;5046018;28;20526;-82
2021/01/28 10:27:58;;;;;;;19.13;9.93;;;3.20;99.90;;;;;;5044754;28;20420;-81
2021/01/28 10:30:24;;;;;;;21.70;12.20;;;3.10;99.90;;;;;;5043654;28;20397;-81
2021/01/28 10:32:54;;;;;;;12.23;9.53;;;3.20;99.90;;;;;;5046895;28;20459;-80
2021/01/28 10:35:24;;;;;;;18.23;9.80;;;3.30;99.90;;;;;;5052496;28;20428;-81
2021/01/28 10:37:51;;;;;;;12.80;8.47;;;3.20;99.90;;;;;;5058304;28;20482;-79
2021/01/28 10:40:17;;;;;;;16.30;9.63;;;3.10;99.90;;;;;;5027791;28;20438;-80
2021/01/28 10:42:44;;;;;;;18.13;10.20;;;3.10;99.90;;;;;;5045734;28;20420;-81
2021/01/28 10:45:18;;;;;;;14.70;11.47;;;3.10;99.90;;;;;;5050974;28;20419;-81
2021/01/28 10:47:44;;;;;;;20.80;10.03;;;3.00;99.90;;;;;;5048437;28;20416;-81
2021/01/28 10:50:11;;;;;;;13.40;10.60;;;3.20;99.90;;;;;;5047581;28;20420;-81
2021/01/28 10:52:37;;;;;;;17.80;9.57;;;3.10;99.90;;;;;;5045267;28;20406;-79
2021/01/28 10:55:07;;;;;;;18.90;12.10;;;3.10;99.90;;;;;;5049523;28;20427;-80
2021/01/28 10:57:34;;;;;;;16.97;11.37;;;3.20;99.90;;;;;;5062214;28;20455;-80
2021/01/28 11:00:00;;;;;;;15.10;7.50;;;3.10;99.90;;;;;;5038491;28;20441;-80
2021/01/28 11:02:25;;;;;;;12.83;8.03;;;2.90;99.90;;;;;;5040361;28;20416;-81
2021/01/28 11:04:51;;;;;;;11.33;9.17;;;2.90;99.90;;;;;;5048445;28;20203;-81
2021/01/28 11:07:17;;;;;;;13.70;8.73;;;3.00;99.90;;;;;;5047947;28;20204;-81
2021/01/28 11:09:43;;;;;;;16.67;10.27;;;3.00;99.90;;;;;;5044997;28;20172;-81
2021/01/28 11:12:09;;;;;;;14.13;9.70;;;3.10;99.90;;;;;;5042745;28;20416;-81
2021/01/28 11:14:36;;;;;;;12.57;9.10;;;3.10;99.90;;;;;;5044839;28;21030;-81
2021/01/28 11:17:02;;;;;;;14.80;9.77;;;3.00;99.90;;;;;;5043947;28;20423;-81
2021/01/28 11:19:28;;;;;;;23.30;7.87;;;3.00;99.90;;;;;;5042707;28;20467;-82
2021/01/28 11:21:53;;;;;;;21.47;10.60;;;3.00;99.90;;;;;;5042988;28;20206;-81
2021/01/28 11:24:19;;;;;;;15.40;7.17;;;3.00;99.90;;;;;;5037816;28;20251;-81
2021/01/28 11:26:45;;;;;;;14.50;9.23;;;3.00;99.90;;;;;;5042529;28;20203;-81
2021/01/28 11:29:11;;;;;;;14.47;8.70;;;3.00;99.90;;;;;;5041499;28;20427;-82
2021/01/28 11:31:37;;;;;;;15.03;7.67;;;3.10;99.90;;;;;;5038356;28;20183;-81
2021/01/28 11:34:04;;;;;;;15.00;7.33;;;3.00;99.90;;;;;;5035898;28;20203;-81
2021/01/28 11:36:31;;;;;;;15.33;8.20;;;3.10;99.90;;;;;;5050374;28;20446;-80
2021/01/28 11:38:57;;;;;;;9.93;7.97;;;3.10;99.90;;;;;;5043479;28;20435;-82
2021/01/28 11:41:23;;;;;;;21.30;9.70;;;3.10;99.90;;;;;;5045280;28;20432;-81
2021/01/28 11:43:52;;;;;;;12.33;6.60;;;3.10;99.90;;;;;;5045640;28;20419;-82
2021/01/28 11:46:19;;;;;;;21.37;9.27;;;3.10;99.90;;;;;;5044863;28;20200;-82
2021/01/28 11:48:45;;;;;;;13.80;8.60;;;3.20;99.90;;;;;;5044366;28;20471;-81
2021/01/28 11:51:10;;;;;;;16.73;8.83;;;3.10;99.90;;;;;;5045033;28;20443;-82
2021/01/28 11:53:39;;;;;;;12.40;9.90;;;3.20;99.90;;;;;;5046654;28;20181;-81
2021/01/28 11:56:06;;;;;;;10.30;7.37;;;3.30;99.90;;;;;;5047817;28;20214;-80
2021/01/28 11:58:32;;;;;;;12.33;8.00;;;3.30;99.90;;;;;;5045431;28;20446;-82
2021/01/28 12:00:58;;;;;;;16.97;7.90;;;3.30;99.90;;;;;;5039837;28;20246;-82
2021/01/28 12:03:24;;;;;;;14.27;6.37;;;3.40;99.90;;;;;;5036897;28;20506;-81
2021/01/28 12:05:50;;;;;;;9.27;6.83;;;3.20;99.90;;;;;;5043642;28;20192;-77
2021/01/28 12:08:16;;;;;;;9.73;6.80;;;3.30;99.90;;;;;;5044539;28;20184;-80
2021/01/28 12:10:42;;;;;;;10.83;7.93;;;3.30;99.90;;;;;;5047886;28;20442;-78
2021/01/28 12:13:07;;;;;;;11.87;7.40;;;3.20;99.90;;;;;;5050843;28;20275;-79
2021/01/28 12:15:33;;;;;;;10.97;7.03;;;3.20;99.90;;;;;;5048814;28;20191;-79
2021/01/28 12:18:00;;;;;;;18.50;11.60;;;3.20;99.90;;;;;;5036145;28;20441;-81
2021/01/28 12:20:30;;;;;;;11.40;7.80;;;3.30;99.90;;;;;;5029944;28;20177;-80
2021/01/28 12:22:57;;;;;;;7.10;5.70;;;3.30;99.90;;;;;;5031289;28;20427;-79
2021/01/28 12:25:23;;;;;;;11.87;7.87;;;3.40;99.90;;;;;;5031534;28;20445;-80
2021/01/28 12:27:49;;;;;;;13.10;9.00;;;3.30;99.90;;;;;;5042200;28;20431;-81
2021/01/28 12:30:20;;;;;;;8.50;6.40;;;3.30;99.90;;;;;;5037302;28;20540;-81
2021/01/28 12:32:47;;;;;;;9.87;6.87;;;3.20;99.90;;;;;;5037592;28;20227;-79
2021/01/28 12:35:18;;;;;;;8.47;6.17;;;3.40;99.90;;;;;;5041147;28;20420;-81
2021/01/28 12:37:43;;;;;;;12.10;7.47;;;3.40;99.90;;;;;;5032830;28;20440;-81
2021/01/28 12:40:12;;;;;;;11.17;7.40;;;3.50;99.90;;;;;;5033016;28;20713;-83
2021/01/28 12:42:38;;;;;;;15.83;5.57;;;3.40;99.90;;;;;;5039065;28;20188;-83
2021/01/28 12:45:05;;;;;;;9.73;5.97;;;3.40;99.90;;;;;;5038588;28;20484;-83
2021/01/28 12:47:32;;;;;;;6.67;5.27;;;3.40;99.90;;;;;;5038623;28;20463;-81
2021/01/28 12:50:00;;;;;;;6.33;5.73;;;3.40;99.90;;;;;;5040305;28;20422;-82
2021/01/28 12:52:29;;;;;;;8.03;6.00;;;3.30;99.90;;;;;;5016253;28;20459;-81
2021/01/28 12:54:55;;;;;;;5.63;4.70;;;3.30;99.90;;;;;;5038145;28;20411;-83
2021/01/28 12:57:20;;;;;;;8.60;5.90;;;3.40;99.90;;;;;;5029899;28;20439;-83
2021/01/28 12:59:48;;;;;;;14.37;7.00;;;3.50;99.90;;;;;;5035792;28;20182;-83
2021/01/28 13:02:14;;;;;;;19.77;6.63;;;3.50;99.90;;;;;;5041345;28;20173;-81
2021/01/28 13:04:40;;;;;;;8.67;5.97;;;3.50;99.90;;;;;;5035670;28;20459;-83
2021/01/28 13:07:08;;;;;;;9.57;4.53;;;3.50;99.90;;;;;;5044870;28;20325;-83